createdAt,value
2018-12-16T00:01:46.977Z,15.68
2018-12-16T00:04:14.458Z,15.53
2018-12-16T00:06:41.918Z,13.40
2018-12-16T00:09:09.404Z,14.78
2018-12-16T00:11:36.886Z,13.48
2018-12-16T00:14:04.422Z,13.43
2018-12-16T00:16:32.075Z,15.32
2018-12-16T00:18:59.626Z,14.55
2018-12-16T00:21:27.230Z,13.28
2018-12-16T00:23:54.717Z,13.72
2018-12-16T00:26:22.182Z,14.10
2018-12-16T00:28:49.665Z,12.30
2018-12-16T00:31:17.119Z,13.50
2018-12-16T00:33:44.590Z,14.70
2018-12-16T00:36:12.066Z,13.88
2018-12-16T00:38:39.535Z,12.63
2018-12-16T00:41:07.001Z,13.15
2018-12-16T00:43:34.487Z,12.60
2018-12-16T00:46:01.982Z,12.30
2018-12-16T00:48:29.440Z,13.35
2018-12-16T00:50:56.926Z,12.20
2018-12-16T00:53:24.740Z,12.50
2018-12-16T00:55:52.199Z,14.07
2018-12-16T00:58:19.657Z,13.20
2018-12-16T01:00:47.886Z,13.50
2018-12-16T01:03:15.341Z,14.28
2018-12-16T01:05:42.821Z,14.65
2018-12-16T01:08:10.284Z,14.75
2018-12-16T01:10:37.768Z,14.85
2018-12-16T01:13:05.231Z,14.35
2018-12-16T01:15:32.719Z,13.90
2018-12-16T01:18:00.179Z,12.85
2018-12-16T01:20:27.711Z,14.50
2018-12-16T01:22:55.220Z,16.55
2018-12-16T01:25:23.575Z,15.00
2018-12-16T01:27:51.039Z,12.95
2018-12-16T01:30:18.687Z,14.60
2018-12-16T01:32:46.138Z,15.43
2018-12-16T01:35:13.675Z,16.07
2018-12-16T01:37:41.218Z,18.17
2018-12-16T01:40:08.781Z,14.47
2018-12-16T01:42:36.229Z,15.72
2018-12-16T01:45:04.077Z,15.25
2018-12-16T01:47:31.551Z,16.77
2018-12-16T01:49:59.011Z,15.70
2018-12-16T01:52:26.482Z,17.85
2018-12-16T01:54:53.982Z,16.15
2018-12-16T01:57:21.442Z,17.07
2018-12-16T01:59:48.908Z,17.00
2018-12-16T02:02:16.377Z,16.95
2018-12-16T02:04:43.838Z,16.97
2018-12-16T02:07:11.502Z,18.77
2018-12-16T02:09:38.955Z,15.30
2018-12-16T02:12:06.425Z,17.32
2018-12-16T02:14:33.894Z,17.67
2018-12-16T02:17:01.375Z,17.82
2018-12-16T02:19:28.842Z,18.50
2018-12-16T02:21:56.395Z,17.50
2018-12-16T02:24:23.855Z,17.48
2018-12-16T02:26:51.327Z,18.20
2018-12-16T02:29:18.842Z,17.87
2018-12-16T02:31:46.438Z,18.35
2018-12-16T02:34:13.915Z,16.67
2018-12-16T02:36:41.379Z,19.70
2018-12-16T02:39:09.000Z,18.35
2018-12-16T02:41:36.456Z,18.98
2018-12-16T02:44:04.002Z,17.55
2018-12-16T02:46:31.498Z,16.70
2018-12-16T02:48:59.033Z,17.35
2018-12-16T02:51:26.468Z,19.25
2018-12-16T02:53:53.932Z,18.02
2018-12-16T02:56:21.512Z,18.50
2018-12-16T02:58:49.161Z,20.08
2018-12-16T03:01:16.602Z,16.37
2018-12-16T03:03:44.069Z,16.20
2018-12-16T03:06:11.546Z,17.50
2018-12-16T03:08:39.042Z,19.05
2018-12-16T03:11:06.546Z,17.52
2018-12-16T03:13:34.018Z,17.85
2018-12-16T03:16:01.592Z,17.57
2018-12-16T03:18:29.051Z,18.32
2018-12-16T03:20:57.134Z,17.12
2018-12-16T03:23:24.588Z,16.82
2018-12-16T03:25:52.806Z,18.82
2018-12-16T03:28:20.263Z,15.95
2018-12-16T03:30:47.858Z,18.55
2018-12-16T03:33:15.390Z,17.40
2018-12-16T03:35:43.039Z,20.20
2018-12-16T03:38:10.483Z,17.87
2018-12-16T03:40:37.979Z,16.55
2018-12-16T03:43:05.459Z,18.80
2018-12-16T03:45:32.933Z,18.12
2018-12-16T03:48:00.387Z,20.85
2018-12-16T03:50:27.863Z,19.30
2018-12-16T03:52:55.319Z,18.67
2018-12-16T03:55:23.486Z,19.48
2018-12-16T03:57:50.966Z,18.02
2018-12-16T04:00:18.435Z,20.08
2018-12-16T04:02:45.901Z,19.48
2018-12-16T04:05:13.477Z,18.62
2018-12-16T04:07:40.961Z,18.05
2018-12-16T04:10:08.587Z,18.25
2018-12-16T04:12:36.066Z,19.82
2018-12-16T04:15:04.706Z,19.87
2018-12-16T04:17:32.311Z,18.73
2018-12-16T04:19:59.770Z,19.95
2018-12-16T04:22:27.233Z,19.30
2018-12-16T04:24:54.718Z,18.25
2018-12-16T04:27:22.193Z,19.57
2018-12-16T04:29:49.672Z,19.67
2018-12-16T04:32:17.273Z,19.42
2018-12-16T04:34:44.727Z,20.08
2018-12-16T04:37:13.036Z,19.77
2018-12-16T04:39:40.502Z,21.87
2018-12-16T04:42:08.084Z,20.20
2018-12-16T04:44:35.537Z,21.20
2018-12-16T04:47:03.014Z,19.65
2018-12-16T04:49:30.472Z,23.22
2018-12-16T04:51:57.936Z,20.60
2018-12-16T04:54:25.941Z,21.30
2018-12-16T04:56:53.392Z,19.65
2018-12-16T04:59:20.884Z,21.37
2018-12-16T05:01:48.349Z,19.92
2018-12-16T05:04:15.817Z,19.57
2018-12-16T05:06:43.317Z,20.62
2018-12-16T05:09:10.767Z,20.17
2018-12-16T05:11:38.255Z,19.90
2018-12-16T05:14:05.731Z,18.82
2018-12-16T05:16:33.189Z,19.65
2018-12-16T05:19:00.675Z,19.75
2018-12-16T05:21:28.149Z,20.90
2018-12-16T05:23:56.418Z,18.82
2018-12-16T05:26:23.897Z,18.00
2018-12-16T05:28:51.369Z,16.85
2018-12-16T05:31:18.834Z,19.60
2018-12-16T05:33:46.314Z,18.20
2018-12-16T05:36:13.789Z,20.45
2018-12-16T05:38:41.346Z,18.77
2018-12-16T05:41:08.815Z,18.55
2018-12-16T05:43:36.273Z,19.23
2018-12-16T05:46:03.965Z,20.55
2018-12-16T05:48:31.421Z,20.85
2018-12-16T05:50:58.893Z,18.52
2018-12-16T05:53:26.353Z,20.12
2018-12-16T05:55:53.839Z,21.48
2018-12-16T05:58:21.301Z,20.15
2018-12-16T06:00:48.803Z,20.72
2018-12-16T06:03:16.254Z,20.65
2018-12-16T06:05:43.717Z,22.00
2018-12-16T06:08:11.205Z,21.70
2018-12-16T06:10:38.657Z,21.12
2018-12-16T06:13:06.138Z,24.02
2018-12-16T06:15:33.597Z,23.27
2018-12-16T06:18:01.074Z,21.12
2018-12-16T06:20:28.647Z,22.40
2018-12-16T06:22:56.117Z,23.35
2018-12-16T06:25:23.573Z,20.68
2018-12-16T06:27:51.066Z,21.57
2018-12-16T06:30:20.409Z,22.13
2018-12-16T06:32:47.943Z,21.45
2018-12-16T06:35:15.401Z,22.70
2018-12-16T06:37:42.883Z,22.22
2018-12-16T06:40:10.340Z,19.12
2018-12-16T06:42:37.892Z,20.77
2018-12-16T06:45:05.755Z,20.75
2018-12-16T06:47:33.238Z,21.40
2018-12-16T06:50:00.731Z,21.00
2018-12-16T06:52:28.205Z,21.25
2018-12-16T06:54:56.478Z,20.70
2018-12-16T06:57:23.934Z,22.13
2018-12-16T06:59:51.415Z,22.00
2018-12-16T07:02:18.868Z,22.20
2018-12-16T07:04:46.345Z,21.62
2018-12-16T07:07:13.795Z,22.48
2018-12-16T07:09:41.269Z,21.33
2018-12-16T07:12:08.750Z,21.50
2018-12-16T07:14:36.348Z,20.75
2018-12-16T07:17:03.810Z,21.05
2018-12-16T07:19:31.278Z,24.57
2018-12-16T07:21:58.742Z,22.67
2018-12-16T07:24:26.234Z,22.70
2018-12-16T07:26:53.837Z,21.57
2018-12-16T07:29:21.419Z,24.75
2018-12-16T07:31:48.959Z,22.25
2018-12-16T07:34:16.445Z,21.93
2018-12-16T07:36:44.021Z,21.52
2018-12-16T07:39:11.515Z,23.55
2018-12-16T07:41:38.991Z,21.85
2018-12-16T07:44:06.588Z,23.62
2018-12-16T07:46:34.132Z,23.20
2018-12-16T07:49:02.586Z,23.40
2018-12-16T07:51:30.354Z,21.70
2018-12-16T07:53:58.461Z,21.40
2018-12-16T07:56:26.019Z,22.65
2018-12-16T07:58:53.520Z,21.25
2018-12-16T08:01:21.003Z,22.37
2018-12-16T08:03:48.587Z,20.35
2018-12-16T08:06:16.123Z,19.60
2018-12-16T08:08:43.684Z,20.32
2018-12-16T08:11:11.175Z,21.30
2018-12-16T08:13:38.649Z,21.93
2018-12-16T08:16:06.146Z,21.55
2018-12-16T08:18:33.635Z,21.68
2018-12-16T08:21:01.114Z,22.13
2018-12-16T08:23:29.421Z,21.77
2018-12-16T08:25:57.058Z,22.25
2018-12-16T08:28:24.539Z,22.05
2018-12-16T08:30:52.004Z,21.82
2018-12-16T08:33:19.491Z,21.10
2018-12-16T08:35:47.158Z,21.37
2018-12-16T10:30:21.305Z,21.48
2018-12-16T10:32:49.629Z,20.35
2018-12-16T10:35:17.085Z,20.65
2018-12-16T10:37:44.580Z,20.82
2018-12-16T10:40:12.138Z,23.12
2018-12-16T10:42:39.619Z,20.10
2018-12-16T10:45:07.441Z,19.37
2018-12-16T10:47:34.948Z,20.82
2018-12-16T10:50:02.693Z,19.40
2018-12-16T10:52:30.190Z,22.22
2018-12-16T10:54:58.550Z,20.52
2018-12-16T10:57:26.338Z,20.80
2018-12-16T10:59:53.807Z,19.37
2018-12-16T11:02:21.271Z,22.27
2018-12-16T11:04:48.976Z,21.05
2018-12-16T11:07:16.429Z,21.73
2018-12-16T11:09:43.920Z,21.77
2018-12-16T11:12:11.381Z,21.57
2018-12-16T11:14:39.313Z,22.52
2018-12-16T11:17:07.536Z,20.05
2018-12-16T11:19:35.023Z,22.85
2018-12-16T11:22:02.486Z,21.33
2018-12-16T11:24:29.969Z,19.40
2018-12-16T11:26:57.545Z,19.95
2018-12-16T11:29:25.005Z,18.77
2018-12-16T11:31:52.471Z,21.02
2018-12-16T11:34:19.962Z,19.25
2018-12-16T11:36:47.429Z,20.00
2018-12-16T11:39:14.912Z,21.42
2018-12-16T11:41:42.391Z,20.40
2018-12-16T11:44:09.881Z,20.10
2018-12-16T11:46:37.384Z,20.55
2018-12-16T11:49:04.839Z,21.77
2018-12-16T11:51:32.409Z,18.92
2018-12-16T11:53:59.869Z,20.10
2018-12-16T11:56:27.358Z,19.57
2018-12-16T11:58:54.843Z,20.37
2018-12-16T12:01:22.331Z,20.43
2018-12-16T12:03:49.800Z,18.52
2018-12-16T12:06:17.273Z,17.95
2018-12-16T12:08:44.819Z,19.37
2018-12-16T12:11:12.313Z,19.55
2018-12-16T12:13:39.782Z,19.60
2018-12-16T12:16:07.269Z,20.15
2018-12-16T12:18:34.786Z,20.57
2018-12-16T12:21:02.283Z,20.55
2018-12-16T12:23:29.811Z,19.12
2018-12-16T12:25:57.301Z,20.95
2018-12-16T12:28:25.024Z,20.80
2018-12-16T12:30:52.483Z,21.20
2018-12-16T12:33:19.995Z,20.37
2018-12-16T12:35:47.540Z,20.70
2018-12-16T12:38:15.018Z,21.48
2018-12-16T12:40:42.515Z,24.18
2018-12-16T12:43:10.195Z,21.70
2018-12-16T12:45:37.644Z,21.73
2018-12-16T12:48:05.192Z,21.20
2018-12-16T12:50:32.696Z,22.13
2018-12-16T12:53:00.183Z,20.82
2018-12-16T12:55:27.658Z,22.25
2018-12-16T12:57:55.149Z,22.50
2018-12-16T13:00:22.616Z,25.95
2018-12-16T13:02:50.168Z,23.57
2018-12-16T13:05:17.635Z,23.38
2018-12-16T13:07:45.126Z,21.33
2018-12-16T13:10:13.437Z,21.87
2018-12-16T13:12:40.914Z,22.58
2018-12-16T13:15:08.579Z,21.60
2018-12-16T13:17:36.040Z,21.68
2018-12-16T13:20:04.146Z,23.77
2018-12-16T13:22:31.619Z,22.90
2018-12-16T13:25:11.113Z,25.55
2018-12-16T13:27:38.576Z,24.77
2018-12-16T13:30:06.935Z,23.77
2018-12-16T13:32:34.397Z,21.75
2018-12-16T13:35:01.876Z,21.23
2018-12-16T13:37:29.354Z,20.40
2018-12-16T13:39:56.858Z,19.75
2018-12-16T13:42:24.358Z,21.70
2018-12-16T13:44:51.942Z,21.80
2018-12-16T13:47:19.518Z,21.62
2018-12-16T13:49:46.989Z,22.80
2018-12-16T13:52:14.475Z,23.18
2018-12-16T13:54:41.930Z,23.02
2018-12-16T13:57:09.422Z,20.80
2018-12-16T13:59:36.897Z,20.55
2018-12-16T14:02:04.375Z,21.75
2018-12-16T14:04:31.863Z,19.55
2018-12-16T14:06:59.337Z,21.60
2018-12-16T14:09:26.797Z,21.42
2018-12-16T14:11:54.777Z,20.90
2018-12-16T14:14:22.233Z,21.82
2018-12-16T14:16:49.785Z,24.05
2018-12-16T14:19:17.258Z,21.82
2018-12-16T14:21:44.724Z,22.30
2018-12-16T14:24:12.195Z,21.73
2018-12-16T14:26:39.664Z,22.65
2018-12-16T14:29:07.129Z,20.92
2018-12-16T14:31:34.602Z,21.12
2018-12-16T14:34:02.077Z,22.20
2018-12-16T14:36:30.242Z,22.27
2018-12-16T14:38:57.748Z,25.02
2018-12-16T14:41:25.197Z,24.65
2018-12-16T14:43:52.674Z,23.45
2018-12-16T14:46:20.137Z,19.12
2018-12-16T14:48:47.611Z,21.45
2018-12-16T14:51:16.327Z,20.30
2018-12-16T14:53:43.828Z,23.12
2018-12-16T14:56:11.354Z,20.68
2018-12-16T14:58:38.848Z,22.85
2018-12-16T15:01:06.371Z,25.02
2018-12-16T15:03:33.858Z,30.35
2018-12-16T15:06:01.322Z,29.63
2018-12-16T15:08:29.064Z,28.42
2018-12-16T15:10:57.119Z,28.42
2018-12-16T15:13:24.582Z,23.12
2018-12-16T15:15:52.124Z,23.85
2018-12-16T15:18:19.586Z,24.87
2018-12-16T15:20:47.053Z,23.98
2018-12-16T15:23:14.615Z,23.30
2018-12-16T15:25:42.078Z,25.57
2018-12-16T15:28:09.536Z,23.27
2018-12-16T15:30:37.033Z,24.63
2018-12-16T15:33:04.496Z,25.05
2018-12-16T15:35:31.980Z,25.92
2018-12-16T15:37:59.484Z,25.40
2018-12-16T15:40:27.009Z,24.45
2018-12-16T15:42:54.514Z,27.00
2018-12-16T15:45:22.006Z,23.90
2018-12-16T15:47:49.605Z,23.35
2018-12-16T15:50:17.082Z,24.87
2018-12-16T15:52:44.695Z,24.60
2018-12-16T15:55:12.161Z,25.23
2018-12-16T15:57:40.254Z,22.80
2018-12-16T16:00:08.115Z,24.18
2018-12-16T16:02:35.658Z,25.17
2018-12-16T16:05:03.363Z,20.48
2018-12-16T16:07:30.878Z,24.72
2018-12-16T16:09:58.707Z,24.23
2018-12-16T16:12:26.165Z,23.27
2018-12-16T16:14:53.652Z,26.77
2018-12-16T16:17:21.134Z,24.52
2018-12-16T16:19:48.612Z,24.50
2018-12-16T16:22:16.177Z,27.40
2018-12-16T16:24:43.630Z,24.45
2018-12-16T16:27:11.116Z,27.32
2018-12-16T16:29:38.585Z,25.80
2018-12-16T16:32:06.159Z,27.50
2018-12-16T16:34:33.646Z,27.73
2018-12-16T16:37:01.110Z,25.40
2018-12-16T16:39:28.642Z,25.75
2018-12-16T16:41:56.118Z,27.25
2018-12-16T16:44:23.619Z,26.87
2018-12-16T16:46:51.114Z,27.98
2018-12-16T16:49:18.599Z,28.57
2018-12-16T16:51:46.072Z,27.77
2018-12-16T16:54:13.553Z,30.25
2018-12-16T16:56:41.028Z,29.72
2018-12-16T16:59:09.222Z,29.05
2018-12-16T17:01:36.682Z,28.85
2018-12-16T17:04:04.263Z,29.30
2018-12-16T17:06:31.732Z,29.32
2018-12-16T17:08:59.225Z,26.70
2018-12-16T17:11:27.347Z,26.52
2018-12-16T17:13:56.103Z,26.30
2018-12-16T17:16:23.583Z,27.02
2018-12-16T17:18:51.551Z,26.82
2018-12-16T17:21:19.018Z,26.77
2018-12-16T17:23:46.488Z,28.83
2018-12-16T17:26:14.401Z,31.37
2018-12-16T17:28:41.861Z,31.77
2018-12-16T17:31:09.356Z,29.80
2018-12-16T17:33:36.953Z,30.97
2018-12-16T17:36:04.427Z,29.35
2018-12-16T17:38:32.698Z,26.35
2018-12-16T17:41:00.264Z,25.65
2018-12-16T17:43:27.727Z,25.32
2018-12-16T17:45:55.337Z,25.55
2018-12-16T17:48:22.805Z,27.87
2018-12-16T17:50:50.303Z,24.80
2018-12-16T17:53:17.757Z,23.15
2018-12-16T17:55:45.241Z,24.15
2018-12-16T18:00:57.418Z,24.85
2018-12-16T18:03:24.870Z,20.68
2018-12-16T18:05:53.219Z,22.48
2018-12-16T18:08:20.674Z,28.45
2018-12-16T18:10:48.144Z,31.23
2018-12-16T18:13:15.614Z,28.77
2018-12-16T18:15:43.078Z,28.07
2018-12-16T18:18:10.562Z,27.40
2018-12-16T18:20:38.038Z,26.68
2018-12-16T18:23:05.700Z,26.12
2018-12-16T18:25:33.171Z,22.20
2018-12-16T18:28:00.770Z,21.75
2018-12-16T18:30:28.415Z,19.62
2018-12-16T18:32:56.090Z,20.85
2018-12-16T18:35:23.538Z,21.33
2018-12-16T18:37:51.319Z,23.47
2018-12-16T18:40:18.796Z,19.98
2018-12-16T18:42:46.455Z,22.55
2018-12-16T18:45:14.817Z,21.85
2018-12-16T18:47:42.309Z,25.12
2018-12-16T18:50:09.856Z,22.07
2018-12-16T18:52:37.643Z,26.37
2018-12-16T18:55:05.747Z,24.07
2018-12-16T18:57:34.203Z,25.20
2018-12-16T19:00:01.722Z,24.43
2018-12-16T19:02:29.254Z,23.25
2018-12-16T19:04:56.830Z,25.17
2018-12-16T19:07:24.733Z,25.68
2018-12-16T19:09:52.222Z,26.35
2018-12-16T19:12:19.710Z,26.25
2018-12-16T19:14:47.598Z,25.17
2018-12-16T19:17:15.060Z,22.75
2018-12-16T19:19:42.526Z,25.70
2018-12-16T19:22:10.169Z,24.25
2018-12-16T19:24:37.627Z,28.65
2018-12-16T19:27:05.122Z,33.48
2018-12-16T19:29:32.625Z,30.80
2018-12-16T19:32:00.200Z,29.37
2018-12-16T19:34:27.658Z,28.98
2018-12-16T19:36:55.140Z,29.85
2018-12-16T19:39:22.572Z,30.97
2018-12-16T19:41:50.079Z,27.37
2018-12-16T19:44:18.117Z,30.23
2018-12-16T19:46:45.704Z,29.20
2018-12-16T19:49:13.205Z,28.35
2018-12-16T19:51:40.687Z,28.95
2018-12-16T19:54:08.221Z,27.37
2018-12-16T19:56:35.969Z,28.45
2018-12-16T19:59:03.770Z,28.42
2018-12-16T20:01:31.268Z,29.18
2018-12-16T20:04:04.638Z,31.93
2018-12-16T20:06:37.829Z,33.53
2018-12-16T20:09:06.148Z,33.40
2018-12-16T20:11:33.660Z,31.45
2018-12-16T20:14:01.141Z,31.15
2018-12-16T20:16:28.601Z,32.35
2018-12-16T20:18:56.202Z,30.82
2018-12-16T20:21:23.664Z,31.55
2018-12-16T20:23:51.582Z,33.60
2018-12-16T20:26:19.030Z,33.58
2018-12-16T20:28:46.641Z,33.02
2018-12-16T20:31:14.095Z,30.90
2018-12-16T20:33:41.577Z,31.65
2018-12-16T20:36:09.043Z,32.60
2018-12-16T20:38:36.577Z,30.85
2018-12-16T20:41:04.049Z,31.45
2018-12-16T20:43:31.603Z,33.90
2018-12-16T20:45:59.136Z,31.33
2018-12-16T20:48:26.834Z,33.18
2018-12-16T20:50:54.277Z,38.80
2018-12-16T20:53:21.782Z,34.08
2018-12-16T20:55:49.319Z,40.38
2018-12-16T20:58:16.844Z,38.20
2018-12-16T21:00:44.354Z,40.00
2018-12-16T21:03:11.818Z,35.58
2018-12-16T21:05:39.332Z,36.80
2018-12-16T21:08:06.921Z,33.85
2018-12-16T21:10:34.486Z,33.98
2018-12-16T21:16:22.727Z,40.73
2018-12-16T21:18:50.291Z,38.70
2018-12-16T21:21:18.733Z,40.20
2018-12-16T21:23:46.335Z,34.70
2018-12-16T21:26:13.878Z,32.75
2018-12-16T21:28:41.361Z,31.45
2018-12-16T21:31:09.629Z,32.90
2018-12-16T21:33:37.657Z,36.88
2018-12-16T21:36:05.231Z,33.25
2018-12-16T21:38:32.791Z,35.20
2018-12-16T21:41:00.362Z,35.28
2018-12-16T21:43:27.850Z,39.48
2018-12-16T21:45:55.370Z,38.38
2018-12-16T21:48:22.844Z,41.60
2018-12-16T21:50:50.354Z,40.60
2018-12-16T21:53:17.841Z,43.08
2018-12-16T21:55:45.463Z,42.05
2018-12-16T21:58:12.940Z,40.67
2018-12-16T22:00:40.393Z,40.60
2018-12-16T22:03:07.882Z,38.33
2018-12-16T22:05:35.476Z,41.13
2018-12-16T22:08:03.266Z,41.13
2018-12-16T22:10:30.818Z,40.58
2018-12-16T22:12:58.358Z,38.85
2018-12-16T22:15:25.999Z,40.80
2018-12-16T22:17:53.545Z,44.25
2018-12-16T22:20:21.643Z,40.70
2018-12-16T22:22:49.194Z,37.60
2018-12-16T22:25:16.668Z,37.88
2018-12-16T22:27:44.195Z,40.43
2018-12-16T22:30:11.733Z,37.13
2018-12-16T22:32:39.259Z,38.60
2018-12-16T22:35:06.890Z,38.33
2018-12-16T22:37:34.375Z,39.08
2018-12-16T22:40:01.831Z,42.73
2018-12-16T22:42:29.478Z,38.25
2018-12-16T22:44:56.942Z,34.40
2018-12-16T22:47:24.401Z,35.20
2018-12-16T22:49:51.878Z,38.60
2018-12-16T22:52:19.547Z,37.33
2018-12-16T22:54:47.029Z,33.88
2018-12-16T22:57:14.493Z,34.00
2018-12-16T22:59:41.989Z,35.28
2018-12-16T23:02:09.490Z,32.70
2018-12-16T23:04:36.973Z,35.17
2018-12-16T23:07:04.605Z,32.55
2018-12-16T23:09:32.340Z,34.67
2018-12-16T23:11:59.894Z,35.60
2018-12-16T23:14:27.451Z,33.58
2018-12-16T23:16:54.910Z,30.92
2018-12-16T23:19:22.392Z,36.98
2018-12-16T23:21:49.938Z,30.50
2018-12-16T23:24:18.422Z,29.85
2018-12-16T23:26:45.897Z,29.67
2018-12-16T23:29:13.354Z,29.87
2018-12-16T23:31:40.830Z,30.02
2018-12-16T23:34:08.314Z,32.90
2018-12-16T23:36:35.782Z,31.02
2018-12-16T23:39:03.998Z,30.35
2018-12-16T23:41:31.520Z,32.60
2018-12-16T23:43:59.043Z,33.88
2018-12-16T23:46:26.517Z,33.60
2018-12-16T23:48:53.991Z,35.85
2018-12-16T23:51:21.466Z,31.97
2018-12-16T23:53:49.088Z,33.75
2018-12-16T23:56:16.578Z,33.00
2018-12-16T23:58:44.048Z,33.00
